sensor_id;sensor_type;location;lat;lon;timestamp;temperature;humidity
71082;SHT31;58740;50.672;18.690;2022-08-21T00:00:29;22.23;79.61
71082;SHT31;58740;50.672;18.690;2022-08-21T00:03:08;22.22;79.61
71082;SHT31;58740;50.672;18.690;2022-08-21T00:05:45;22.22;79.58
71082;SHT31;58740;50.672;18.690;2022-08-21T00:08:18;22.22;79.60
71082;SHT31;58740;50.672;18.690;2022-08-21T00:10:48;22.21;79.61
71082;SHT31;58740;50.672;18.690;2022-08-21T00:13:16;22.22;79.66
71082;SHT31;58740;50.672;18.690;2022-08-21T00:15:47;22.22;79.65
71082;SHT31;58740;50.672;18.690;2022-08-21T00:18:17;22.19;79.69
71082;SHT31;58740;50.672;18.690;2022-08-21T00:20:46;22.19;79.65
71082;SHT31;58740;50.672;18.690;2022-08-21T00:23:14;22.19;79.60
71082;SHT31;58740;50.672;18.690;2022-08-21T00:25:43;22.18;79.61
71082;SHT31;58740;50.672;18.690;2022-08-21T00:28:12;22.17;79.67
71082;SHT31;58740;50.672;18.690;2022-08-21T00:30:41;22.16;79.63
71082;SHT31;58740;50.672;18.690;2022-08-21T00:33:10;22.16;79.67
71082;SHT31;58740;50.672;18.690;2022-08-21T00:35:39;22.15;79.71
71082;SHT31;58740;50.672;18.690;2022-08-21T00:38:10;22.16;79.78
71082;SHT31;58740;50.672;18.690;2022-08-21T00:43:17;22.17;79.86
71082;SHT31;58740;50.672;18.690;2022-08-21T00:45:49;22.17;79.90
71082;SHT31;58740;50.672;18.690;2022-08-21T00:48:18;22.16;79.80
71082;SHT31;58740;50.672;18.690;2022-08-21T00:50:49;22.15;79.82
71082;SHT31;58740;50.672;18.690;2022-08-21T00:53:27;22.15;79.90
71082;SHT31;58740;50.672;18.690;2022-08-21T00:55:57;22.15;79.95
71082;SHT31;58740;50.672;18.690;2022-08-21T00:58:29;22.17;79.90
71082;SHT31;58740;50.672;18.690;2022-08-21T01:00:59;22.17;79.94
71082;SHT31;58740;50.672;18.690;2022-08-21T01:03:35;22.19;79.98
71082;SHT31;58740;50.672;18.690;2022-08-21T01:06:04;22.20;79.97
71082;SHT31;58740;50.672;18.690;2022-08-21T01:08:33;22.20;79.90
71082;SHT31;58740;50.672;18.690;2022-08-21T01:11:03;22.21;79.92
71082;SHT31;58740;50.672;18.690;2022-08-21T01:13:32;22.22;79.99
71082;SHT31;58740;50.672;18.690;2022-08-21T01:16:04;22.22;79.93
71082;SHT31;58740;50.672;18.690;2022-08-21T01:18:37;22.22;79.86
71082;SHT31;58740;50.672;18.690;2022-08-21T01:21:09;22.23;79.83
71082;SHT31;58740;50.672;18.690;2022-08-21T01:23:46;22.21;79.89
71082;SHT31;58740;50.672;18.690;2022-08-21T01:26:20;22.22;79.89
71082;SHT31;58740;50.672;18.690;2022-08-21T01:29:09;22.20;79.80
71082;SHT31;58740;50.672;18.690;2022-08-21T01:32:06;22.20;79.87
71082;SHT31;58740;50.672;18.690;2022-08-21T01:34:39;22.18;79.87
71082;SHT31;58740;50.672;18.690;2022-08-21T01:37:10;22.18;79.91
71082;SHT31;58740;50.672;18.690;2022-08-21T01:39:40;22.16;79.95
71082;SHT31;58740;50.672;18.690;2022-08-21T01:42:09;22.18;79.97
71082;SHT31;58740;50.672;18.690;2022-08-21T01:44:37;22.17;79.97
71082;SHT31;58740;50.672;18.690;2022-08-21T01:47:06;22.19;79.99
71082;SHT31;58740;50.672;18.690;2022-08-21T01:49:37;22.19;79.92
71082;SHT31;58740;50.672;18.690;2022-08-21T01:52:07;22.20;79.86
71082;SHT31;58740;50.672;18.690;2022-08-21T01:54:36;22.19;79.95
71082;SHT31;58740;50.672;18.690;2022-08-21T01:57:06;22.17;79.97
71082;SHT31;58740;50.672;18.690;2022-08-21T01:59:36;22.18;79.89
71082;SHT31;58740;50.672;18.690;2022-08-21T02:02:04;22.19;79.95
71082;SHT31;58740;50.672;18.690;2022-08-21T02:04:32;22.20;79.89
71082;SHT31;58740;50.672;18.690;2022-08-21T02:07:00;22.18;79.78
71082;SHT31;58740;50.672;18.690;2022-08-21T02:09:29;22.18;79.80
71082;SHT31;58740;50.672;18.690;2022-08-21T02:11:57;22.15;79.75
71082;SHT31;58740;50.672;18.690;2022-08-21T02:14:25;22.15;79.82
71082;SHT31;58740;50.672;18.690;2022-08-21T02:16:59;22.15;79.79
71082;SHT31;58740;50.672;18.690;2022-08-21T02:19:36;22.14;79.74
71082;SHT31;58740;50.672;18.690;2022-08-21T02:22:10;22.09;79.76
71082;SHT31;58740;50.672;18.690;2022-08-21T02:24:39;22.05;79.80
71082;SHT31;58740;50.672;18.690;2022-08-21T02:27:23;22.00;79.86
71082;SHT31;58740;50.672;18.690;2022-08-21T02:29:55;21.97;79.93
71082;SHT31;58740;50.672;18.690;2022-08-21T02:32:25;21.96;79.92
71082;SHT31;58740;50.672;18.690;2022-08-21T02:34:53;21.98;79.89
71082;SHT31;58740;50.672;18.690;2022-08-21T02:37:21;21.99;79.89
71082;SHT31;58740;50.672;18.690;2022-08-21T02:39:50;22.00;79.88
71082;SHT31;58740;50.672;18.690;2022-08-21T02:42:18;21.99;79.77
71082;SHT31;58740;50.672;18.690;2022-08-21T02:44:46;21.97;79.74
71082;SHT31;58740;50.672;18.690;2022-08-21T02:47:15;21.96;79.64
71082;SHT31;58740;50.672;18.690;2022-08-21T02:49:42;21.96;79.46
71082;SHT31;58740;50.672;18.690;2022-08-21T02:52:10;21.98;79.38
71082;SHT31;58740;50.672;18.690;2022-08-21T02:54:39;21.98;79.39
71082;SHT31;58740;50.672;18.690;2022-08-21T02:57:06;21.99;79.24
71082;SHT31;58740;50.672;18.690;2022-08-21T02:59:35;22.00;79.24
71082;SHT31;58740;50.672;18.690;2022-08-21T03:02:03;22.00;79.18
71082;SHT31;58740;50.672;18.690;2022-08-21T03:04:31;22.00;79.19
71082;SHT31;58740;50.672;18.690;2022-08-21T03:06:59;21.99;79.22
71082;SHT31;58740;50.672;18.690;2022-08-21T03:09:27;22.01;79.27
71082;SHT31;58740;50.672;18.690;2022-08-21T03:11:55;22.01;79.36
71082;SHT31;58740;50.672;18.690;2022-08-21T03:14:23;22.04;79.36
71082;SHT31;58740;50.672;18.690;2022-08-21T03:16:51;22.06;79.43
71082;SHT31;58740;50.672;18.690;2022-08-21T03:19:18;22.05;79.41
71082;SHT31;58740;50.672;18.690;2022-08-21T03:21:46;22.06;79.39
71082;SHT31;58740;50.672;18.690;2022-08-21T03:24:14;22.08;79.23
71082;SHT31;58740;50.672;18.690;2022-08-21T03:26:45;22.09;79.29
71082;SHT31;58740;50.672;18.690;2022-08-21T03:29:12;22.11;79.21
71082;SHT31;58740;50.672;18.690;2022-08-21T03:31:40;22.12;79.19
71082;SHT31;58740;50.672;18.690;2022-08-21T03:34:08;22.13;79.14
71082;SHT31;58740;50.672;18.690;2022-08-21T03:36:35;22.12;79.12
71082;SHT31;58740;50.672;18.690;2022-08-21T03:39:03;22.12;79.24
71082;SHT31;58740;50.672;18.690;2022-08-21T03:41:31;22.13;79.28
71082;SHT31;58740;50.672;18.690;2022-08-21T03:43:59;22.12;79.36
71082;SHT31;58740;50.672;18.690;2022-08-21T03:46:27;22.13;79.35
71082;SHT31;58740;50.672;18.690;2022-08-21T03:48:54;22.15;79.38
71082;SHT31;58740;50.672;18.690;2022-08-21T03:51:22;22.18;79.31
71082;SHT31;58740;50.672;18.690;2022-08-21T03:53:50;22.18;79.33
71082;SHT31;58740;50.672;18.690;2022-08-21T03:56:19;22.20;79.38
71082;SHT31;58740;50.672;18.690;2022-08-21T03:58:47;22.19;79.33
71082;SHT31;58740;50.672;18.690;2022-08-21T04:01:15;22.20;79.38
71082;SHT31;58740;50.672;18.690;2022-08-21T04:03:43;22.20;79.34
71082;SHT31;58740;50.672;18.690;2022-08-21T04:06:10;22.19;79.38
71082;SHT31;58740;50.672;18.690;2022-08-21T04:08:38;22.19;79.38
71082;SHT31;58740;50.672;18.690;2022-08-21T04:11:06;22.20;79.37
71082;SHT31;58740;50.672;18.690;2022-08-21T04:13:34;22.19;79.36
71082;SHT31;58740;50.672;18.690;2022-08-21T04:16:09;22.18;79.36
71082;SHT31;58740;50.672;18.690;2022-08-21T04:18:37;22.17;79.41
71082;SHT31;58740;50.672;18.690;2022-08-21T04:21:05;22.14;79.42
71082;SHT31;58740;50.672;18.690;2022-08-21T04:23:37;22.11;79.50
71082;SHT31;58740;50.672;18.690;2022-08-21T04:26:05;22.12;79.57
71082;SHT31;58740;50.672;18.690;2022-08-21T04:28:33;22.11;79.57
71082;SHT31;58740;50.672;18.690;2022-08-21T04:31:01;22.13;79.59
71082;SHT31;58740;50.672;18.690;2022-08-21T04:33:29;22.14;79.60
71082;SHT31;58740;50.672;18.690;2022-08-21T04:35:57;22.13;79.58
71082;SHT31;58740;50.672;18.690;2022-08-21T04:38:24;22.11;79.53
71082;SHT31;58740;50.672;18.690;2022-08-21T04:41:02;22.08;79.57
71082;SHT31;58740;50.672;18.690;2022-08-21T04:43:33;22.08;79.62
71082;SHT31;58740;50.672;18.690;2022-08-21T04:46:02;22.07;79.63
71082;SHT31;58740;50.672;18.690;2022-08-21T04:48:29;22.08;79.66
71082;SHT31;58740;50.672;18.690;2022-08-21T04:51:15;22.10;79.64
71082;SHT31;58740;50.672;18.690;2022-08-21T04:53:47;22.11;79.49
71082;SHT31;58740;50.672;18.690;2022-08-21T04:58:54;22.09;79.47
71082;SHT31;58740;50.672;18.690;2022-08-21T05:01:26;22.07;79.46
71082;SHT31;58740;50.672;18.690;2022-08-21T05:03:58;22.08;79.43
71082;SHT31;58740;50.672;18.690;2022-08-21T05:06:30;22.06;79.50
71082;SHT31;58740;50.672;18.690;2022-08-21T05:09:02;22.03;79.42
71082;SHT31;58740;50.672;18.690;2022-08-21T05:11:31;22.02;79.53
71082;SHT31;58740;50.672;18.690;2022-08-21T05:14:00;22.04;79.50
71082;SHT31;58740;50.672;18.690;2022-08-21T05:16:28;21.97;79.56
71082;SHT31;58740;50.672;18.690;2022-08-21T05:19:05;21.96;79.73
71082;SHT31;58740;50.672;18.690;2022-08-21T05:21:34;21.93;79.68
71082;SHT31;58740;50.672;18.690;2022-08-21T05:24:05;21.93;79.74
71082;SHT31;58740;50.672;18.690;2022-08-21T05:26:33;21.96;79.68
71082;SHT31;58740;50.672;18.690;2022-08-21T05:29:13;21.97;79.61
71082;SHT31;58740;50.672;18.690;2022-08-21T05:31:46;21.99;79.58
71082;SHT31;58740;50.672;18.690;2022-08-21T05:34:17;21.99;79.66
71082;SHT31;58740;50.672;18.690;2022-08-21T05:36:48;21.99;79.59
71082;SHT31;58740;50.672;18.690;2022-08-21T05:39:16;21.97;79.62
71082;SHT31;58740;50.672;18.690;2022-08-21T05:41:44;21.99;79.66
71082;SHT31;58740;50.672;18.690;2022-08-21T05:44:12;21.98;79.63
71082;SHT31;58740;50.672;18.690;2022-08-21T05:46:39;21.97;79.69
71082;SHT31;58740;50.672;18.690;2022-08-21T05:49:07;22.00;79.71
71082;SHT31;58740;50.672;18.690;2022-08-21T05:51:35;22.02;79.64
71082;SHT31;58740;50.672;18.690;2022-08-21T05:54:03;22.03;79.67
71082;SHT31;58740;50.672;18.690;2022-08-21T05:56:31;22.03;79.61
71082;SHT31;58740;50.672;18.690;2022-08-21T05:58:59;22.05;79.70
71082;SHT31;58740;50.672;18.690;2022-08-21T06:01:27;22.06;79.76
71082;SHT31;58740;50.672;18.690;2022-08-21T06:03:58;22.06;79.75
71082;SHT31;58740;50.672;18.690;2022-08-21T06:06:27;22.08;79.69
71082;SHT31;58740;50.672;18.690;2022-08-21T06:08:55;22.11;79.49
71082;SHT31;58740;50.672;18.690;2022-08-21T06:11:23;22.10;79.62
71082;SHT31;58740;50.672;18.690;2022-08-21T06:13:55;22.09;79.66
71082;SHT31;58740;50.672;18.690;2022-08-21T06:16:23;22.08;79.88
71082;SHT31;58740;50.672;18.690;2022-08-21T06:18:53;22.10;79.85
71082;SHT31;58740;50.672;18.690;2022-08-21T06:21:26;22.11;79.81
71082;SHT31;58740;50.672;18.690;2022-08-21T06:23:54;22.13;79.83
71082;SHT31;58740;50.672;18.690;2022-08-21T06:26:22;22.12;79.55
71082;SHT31;58740;50.672;18.690;2022-08-21T06:28:51;22.08;79.32
71082;SHT31;58740;50.672;18.690;2022-08-21T06:31:20;22.03;79.32
71082;SHT31;58740;50.672;18.690;2022-08-21T06:33:51;21.99;79.16
71082;SHT31;58740;50.672;18.690;2022-08-21T06:36:20;21.94;79.18
71082;SHT31;58740;50.672;18.690;2022-08-21T06:38:48;21.89;79.12
71082;SHT31;58740;50.672;18.690;2022-08-21T06:41:18;21.84;79.10
71082;SHT31;58740;50.672;18.690;2022-08-21T06:43:53;21.77;79.10
71082;SHT31;58740;50.672;18.690;2022-08-21T06:46:24;21.74;79.07
71082;SHT31;58740;50.672;18.690;2022-08-21T06:48:55;21.68;79.00
71082;SHT31;58740;50.672;18.690;2022-08-21T06:51:24;21.66;78.92
71082;SHT31;58740;50.672;18.690;2022-08-21T06:53:55;21.61;78.78
71082;SHT31;58740;50.672;18.690;2022-08-21T06:56:25;21.55;78.92
71082;SHT31;58740;50.672;18.690;2022-08-21T06:58:53;21.52;78.89
71082;SHT31;58740;50.672;18.690;2022-08-21T07:01:22;21.50;79.10
71082;SHT31;58740;50.672;18.690;2022-08-21T07:03:53;21.49;79.10
71082;SHT31;58740;50.672;18.690;2022-08-21T07:06:21;21.49;79.21
71082;SHT31;58740;50.672;18.690;2022-08-21T07:08:49;21.50;79.37
71082;SHT31;58740;50.672;18.690;2022-08-21T07:11:18;21.52;79.38
71082;SHT31;58740;50.672;18.690;2022-08-21T07:13:50;21.55;79.29
71082;SHT31;58740;50.672;18.690;2022-08-21T07:16:21;21.55;79.26
71082;SHT31;58740;50.672;18.690;2022-08-21T07:18:49;21.56;79.21
71082;SHT31;58740;50.672;18.690;2022-08-21T07:21:17;21.56;79.18
71082;SHT31;58740;50.672;18.690;2022-08-21T07:23:50;21.55;78.95
71082;SHT31;58740;50.672;18.690;2022-08-21T07:26:19;21.57;78.66
71082;SHT31;58740;50.672;18.690;2022-08-21T07:28:50;21.59;78.51
71082;SHT31;58740;50.672;18.690;2022-08-21T07:31:20;21.61;78.22
71082;SHT31;58740;50.672;18.690;2022-08-21T07:33:51;21.61;77.88
71082;SHT31;58740;50.672;18.690;2022-08-21T07:36:20;21.62;77.70
71082;SHT31;58740;50.672;18.690;2022-08-21T07:38:49;21.64;77.61
71082;SHT31;58740;50.672;18.690;2022-08-21T07:41:23;21.67;77.60
71082;SHT31;58740;50.672;18.690;2022-08-21T07:43:56;21.69;77.39
71082;SHT31;58740;50.672;18.690;2022-08-21T07:46:25;21.73;77.22
71082;SHT31;58740;50.672;18.690;2022-08-21T07:48:53;21.78;77.32
71082;SHT31;58740;50.672;18.690;2022-08-21T07:51:24;21.81;77.13
71082;SHT31;58740;50.672;18.690;2022-08-21T07:53:56;21.84;76.81
71082;SHT31;58740;50.672;18.690;2022-08-21T07:56:27;21.90;77.17
71082;SHT31;58740;50.672;18.690;2022-08-21T07:58:57;21.99;76.85
71082;SHT31;58740;50.672;18.690;2022-08-21T08:01:25;22.07;76.98
71082;SHT31;58740;50.672;18.690;2022-08-21T08:03:53;22.15;76.88
71082;SHT31;58740;50.672;18.690;2022-08-21T08:06:22;22.24;76.72
71082;SHT31;58740;50.672;18.690;2022-08-21T08:08:50;22.30;76.05
71082;SHT31;58740;50.672;18.690;2022-08-21T08:11:18;22.37;76.00
71082;SHT31;58740;50.672;18.690;2022-08-21T08:13:47;22.42;75.71
71082;SHT31;58740;50.672;18.690;2022-08-21T08:16:18;22.44;75.62
71082;SHT31;58740;50.672;18.690;2022-08-21T08:18:46;22.44;75.20
71082;SHT31;58740;50.672;18.690;2022-08-21T08:21:14;22.45;75.30
71082;SHT31;58740;50.672;18.690;2022-08-21T08:23:42;22.47;75.30
71082;SHT31;58740;50.672;18.690;2022-08-21T08:26:12;22.51;75.26
71082;SHT31;58740;50.672;18.690;2022-08-21T08:28:42;22.55;74.93
71082;SHT31;58740;50.672;18.690;2022-08-21T08:31:11;22.60;74.61
71082;SHT31;58740;50.672;18.690;2022-08-21T08:33:38;22.63;74.44
71082;SHT31;58740;50.672;18.690;2022-08-21T08:36:12;22.63;74.00
71082;SHT31;58740;50.672;18.690;2022-08-21T08:38:44;22.65;74.16
71082;SHT31;58740;50.672;18.690;2022-08-21T08:41:18;22.67;73.43
71082;SHT31;58740;50.672;18.690;2022-08-21T08:43:53;22.64;73.22
71082;SHT31;58740;50.672;18.690;2022-08-21T08:46:47;22.63;73.45
71082;SHT31;58740;50.672;18.690;2022-08-21T08:49:27;22.66;73.38
71082;SHT31;58740;50.672;18.690;2022-08-21T08:55:03;22.69;73.17
71082;SHT31;58740;50.672;18.690;2022-08-21T08:57:37;22.70;72.90
71082;SHT31;58740;50.672;18.690;2022-08-21T09:00:10;22.73;73.23
71082;SHT31;58740;50.672;18.690;2022-08-21T09:02:44;22.76;73.13
71082;SHT31;58740;50.672;18.690;2022-08-21T09:05:25;22.78;72.91
71082;SHT31;58740;50.672;18.690;2022-08-21T09:13:55;22.76;73.04
71082;SHT31;58740;50.672;18.690;2022-08-21T09:17:19;22.78;72.97
71082;SHT31;58740;50.672;18.690;2022-08-21T09:20:11;22.78;73.02
71082;SHT31;58740;50.672;18.690;2022-08-21T09:22:53;22.79;72.93
71082;SHT31;58740;50.672;18.690;2022-08-21T09:26:13;22.76;73.00
71082;SHT31;58740;50.672;18.690;2022-08-21T09:28:45;22.76;73.14
71082;SHT31;58740;50.672;18.690;2022-08-21T09:31:33;22.75;73.15
71082;SHT31;58740;50.672;18.690;2022-08-21T09:34:08;22.73;73.20
71082;SHT31;58740;50.672;18.690;2022-08-21T09:39:21;22.71;73.35
71082;SHT31;58740;50.672;18.690;2022-08-21T09:41:58;22.69;73.59
71082;SHT31;58740;50.672;18.690;2022-08-21T09:44:34;22.68;73.68
71082;SHT31;58740;50.672;18.690;2022-08-21T09:47:11;22.66;73.84
71082;SHT31;58740;50.672;18.690;2022-08-21T09:49:42;22.64;73.93
71082;SHT31;58740;50.672;18.690;2022-08-21T09:52:28;22.64;73.93
71082;SHT31;58740;50.672;18.690;2022-08-21T09:54:56;22.63;73.90
71082;SHT31;58740;50.672;18.690;2022-08-21T09:57:25;22.64;74.01
71082;SHT31;58740;50.672;18.690;2022-08-21T10:02:49;22.60;73.89
71082;SHT31;58740;50.672;18.690;2022-08-21T10:05:22;22.58;74.04
71082;SHT31;58740;50.672;18.690;2022-08-21T10:07:54;22.56;74.02
71082;SHT31;58740;50.672;18.690;2022-08-21T10:10:31;22.55;74.16
71082;SHT31;58740;50.672;18.690;2022-08-21T10:18:36;22.55;74.32
71082;SHT31;58740;50.672;18.690;2022-08-21T10:36:14;22.65;73.78
71082;SHT31;58740;50.672;18.690;2022-08-21T10:38:55;22.65;73.48
71082;SHT31;58740;50.672;18.690;2022-08-21T10:58:08;22.53;74.04
71082;SHT31;58740;50.672;18.690;2022-08-21T11:00:43;22.51;74.05
71082;SHT31;58740;50.672;18.690;2022-08-21T11:03:31;22.52;74.17
71082;SHT31;58740;50.672;18.690;2022-08-21T11:08:57;22.50;74.24
71082;SHT31;58740;50.672;18.690;2022-08-21T11:14:47;22.38;74.16
71082;SHT31;58740;50.672;18.690;2022-08-21T11:18:00;22.34;74.11
71082;SHT31;58740;50.672;18.690;2022-08-21T11:20:40;22.29;74.23
71082;SHT31;58740;50.672;18.690;2022-08-21T11:26:50;22.18;74.58
71082;SHT31;58740;50.672;18.690;2022-08-21T11:29:43;22.15;74.52
71082;SHT31;58740;50.672;18.690;2022-08-21T11:36:09;22.11;74.45
71082;SHT31;58740;50.672;18.690;2022-08-21T11:38:35;22.10;74.58
71082;SHT31;58740;50.672;18.690;2022-08-21T11:41:21;22.10;74.78
71082;SHT31;58740;50.672;18.690;2022-08-21T11:56:24;22.06;74.65
71082;SHT31;58740;50.672;18.690;2022-08-21T11:59:05;22.05;74.57
71082;SHT31;58740;50.672;18.690;2022-08-21T12:01:39;22.04;74.53
71082;SHT31;58740;50.672;18.690;2022-08-21T12:04:47;22.00;74.84
71082;SHT31;58740;50.672;18.690;2022-08-21T12:07:27;21.97;74.73
71082;SHT31;58740;50.672;18.690;2022-08-21T12:09:58;21.92;74.69
71082;SHT31;58740;50.672;18.690;2022-08-21T12:12:29;21.88;74.93
71082;SHT31;58740;50.672;18.690;2022-08-21T12:15:07;21.85;75.09
71082;SHT31;58740;50.672;18.690;2022-08-21T12:17:56;21.82;75.14
71082;SHT31;58740;50.672;18.690;2022-08-21T12:28:29;21.72;75.28
71082;SHT31;58740;50.672;18.690;2022-08-21T12:30:58;21.65;75.24
71082;SHT31;58740;50.672;18.690;2022-08-21T12:33:38;21.57;75.34
71082;SHT31;58740;50.672;18.690;2022-08-21T12:36:19;21.51;75.48
71082;SHT31;58740;50.672;18.690;2022-08-21T12:39:03;21.50;75.67
71082;SHT31;58740;50.672;18.690;2022-08-21T12:44:42;21.48;75.65
71082;SHT31;58740;50.672;18.690;2022-08-21T12:49:56;21.34;75.49
71082;SHT31;58740;50.672;18.690;2022-08-21T12:52:45;21.31;75.72
71082;SHT31;58740;50.672;18.690;2022-08-21T12:55:30;21.31;75.78
71082;SHT31;58740;50.672;18.690;2022-08-21T12:58:00;21.32;75.80
71082;SHT31;58740;50.672;18.690;2022-08-21T13:00:29;21.28;75.69
71082;SHT31;58740;50.672;18.690;2022-08-21T13:02:57;21.25;75.79
71082;SHT31;58740;50.672;18.690;2022-08-21T13:08:05;21.23;75.67
71082;SHT31;58740;50.672;18.690;2022-08-21T13:10:37;21.19;75.63
71082;SHT31;58740;50.672;18.690;2022-08-21T13:13:17;21.15;75.65
71082;SHT31;58740;50.672;18.690;2022-08-21T13:15:56;21.08;75.57
71082;SHT31;58740;50.672;18.690;2022-08-21T13:18:28;21.00;75.93
71082;SHT31;58740;50.672;18.690;2022-08-21T13:21:11;20.94;75.93
71082;SHT31;58740;50.672;18.690;2022-08-21T13:23:42;20.90;76.17
71082;SHT31;58740;50.672;18.690;2022-08-21T13:26:16;20.87;76.19
71082;SHT31;58740;50.672;18.690;2022-08-21T13:28:48;20.85;76.24
71082;SHT31;58740;50.672;18.690;2022-08-21T13:31:28;20.79;76.35
71082;SHT31;58740;50.672;18.690;2022-08-21T13:33:58;20.75;76.60
71082;SHT31;58740;50.672;18.690;2022-08-21T13:36:29;20.73;76.61
71082;SHT31;58740;50.672;18.690;2022-08-21T13:39:03;20.70;76.63
71082;SHT31;58740;50.672;18.690;2022-08-21T13:41:35;20.66;76.73
71082;SHT31;58740;50.672;18.690;2022-08-21T13:46:48;20.61;76.86
71082;SHT31;58740;50.672;18.690;2022-08-21T13:49:18;20.58;76.77
71082;SHT31;58740;50.672;18.690;2022-08-21T13:51:53;20.55;77.11
71082;SHT31;58740;50.672;18.690;2022-08-21T13:54:22;20.55;77.16
71082;SHT31;58740;50.672;18.690;2022-08-21T13:57:03;20.51;77.06
71082;SHT31;58740;50.672;18.690;2022-08-21T13:59:33;20.47;76.92
71082;SHT31;58740;50.672;18.690;2022-08-21T14:02:13;20.45;77.00
71082;SHT31;58740;50.672;18.690;2022-08-21T14:04:58;20.43;76.88
71082;SHT31;58740;50.672;18.690;2022-08-21T14:07:30;20.37;76.83
71082;SHT31;58740;50.672;18.690;2022-08-21T14:10:13;20.33;77.28
71082;SHT31;58740;50.672;18.690;2022-08-21T14:12:51;20.30;77.25
71082;SHT31;58740;50.672;18.690;2022-08-21T14:15:33;20.27;77.23
71082;SHT31;58740;50.672;18.690;2022-08-21T14:18:07;20.26;77.39
71082;SHT31;58740;50.672;18.690;2022-08-21T14:20:43;20.24;77.36
71082;SHT31;58740;50.672;18.690;2022-08-21T14:23:23;20.21;77.38
71082;SHT31;58740;50.672;18.690;2022-08-21T14:25:53;20.19;77.66
71082;SHT31;58740;50.672;18.690;2022-08-21T14:28:30;20.17;77.40
71082;SHT31;58740;50.672;18.690;2022-08-21T14:31:16;20.12;77.49
71082;SHT31;58740;50.672;18.690;2022-08-21T14:33:48;20.09;77.64
71082;SHT31;58740;50.672;18.690;2022-08-21T14:36:16;20.06;77.62
71082;SHT31;58740;50.672;18.690;2022-08-21T14:38:44;20.05;77.79
71082;SHT31;58740;50.672;18.690;2022-08-21T14:41:15;20.04;77.90
71082;SHT31;58740;50.672;18.690;2022-08-21T14:43:56;20.03;77.92
71082;SHT31;58740;50.672;18.690;2022-08-21T14:46:36;20.03;77.87
71082;SHT31;58740;50.672;18.690;2022-08-21T14:49:26;20.00;78.00
71082;SHT31;58740;50.672;18.690;2022-08-21T14:51:56;19.98;77.85
71082;SHT31;58740;50.672;18.690;2022-08-21T14:54:27;19.93;78.00
71082;SHT31;58740;50.672;18.690;2022-08-21T14:57:00;19.91;78.04
71082;SHT31;58740;50.672;18.690;2022-08-21T14:59:33;19.93;78.12
71082;SHT31;58740;50.672;18.690;2022-08-21T15:02:02;19.94;78.10
71082;SHT31;58740;50.672;18.690;2022-08-21T15:04:32;19.94;78.29
71082;SHT31;58740;50.672;18.690;2022-08-21T15:07:02;19.96;78.30
71082;SHT31;58740;50.672;18.690;2022-08-21T15:09:31;19.97;78.37
71082;SHT31;58740;50.672;18.690;2022-08-21T15:11:59;19.98;78.07
71082;SHT31;58740;50.672;18.690;2022-08-21T15:14:30;19.95;78.21
71082;SHT31;58740;50.672;18.690;2022-08-21T15:17:02;19.95;78.06
71082;SHT31;58740;50.672;18.690;2022-08-21T15:19:34;19.93;77.82
71082;SHT31;58740;50.672;18.690;2022-08-21T15:22:04;19.89;77.89
71082;SHT31;58740;50.672;18.690;2022-08-21T15:24:41;19.86;78.01
71082;SHT31;58740;50.672;18.690;2022-08-21T15:27:09;19.86;78.08
71082;SHT31;58740;50.672;18.690;2022-08-21T15:29:46;19.87;78.09
71082;SHT31;58740;50.672;18.690;2022-08-21T15:34:51;19.86;78.11
71082;SHT31;58740;50.672;18.690;2022-08-21T15:37:20;19.85;78.31
71082;SHT31;58740;50.672;18.690;2022-08-21T15:39:49;19.84;78.00
71082;SHT31;58740;50.672;18.690;2022-08-21T15:42:22;19.83;78.01
71082;SHT31;58740;50.672;18.690;2022-08-21T15:44:54;19.80;78.09
71082;SHT31;58740;50.672;18.690;2022-08-21T15:47:25;19.79;78.09
71082;SHT31;58740;50.672;18.690;2022-08-21T15:50:00;19.77;78.14
71082;SHT31;58740;50.672;18.690;2022-08-21T15:52:32;19.76;77.95
71082;SHT31;58740;50.672;18.690;2022-08-21T15:55:01;19.74;78.05
71082;SHT31;58740;50.672;18.690;2022-08-21T15:57:28;19.74;78.08
71082;SHT31;58740;50.672;18.690;2022-08-21T15:59:58;19.72;78.11
71082;SHT31;58740;50.672;18.690;2022-08-21T16:02:38;19.72;78.29
71082;SHT31;58740;50.672;18.690;2022-08-21T16:05:12;19.72;78.04
71082;SHT31;58740;50.672;18.690;2022-08-21T16:07:44;19.71;78.12
71082;SHT31;58740;50.672;18.690;2022-08-21T16:10:14;19.71;78.41
71082;SHT31;58740;50.672;18.690;2022-08-21T16:12:47;19.69;78.18
71082;SHT31;58740;50.672;18.690;2022-08-21T16:15:24;19.66;78.18
71082;SHT31;58740;50.672;18.690;2022-08-21T16:17:54;19.63;78.23
71082;SHT31;58740;50.672;18.690;2022-08-21T16:20:26;19.61;78.13
71082;SHT31;58740;50.672;18.690;2022-08-21T16:22:56;19.59;78.21
71082;SHT31;58740;50.672;18.690;2022-08-21T16:25:26;19.57;78.32
71082;SHT31;58740;50.672;18.690;2022-08-21T16:27:55;19.54;78.25
71082;SHT31;58740;50.672;18.690;2022-08-21T16:30:29;19.53;78.39
71082;SHT31;58740;50.672;18.690;2022-08-21T16:33:01;19.53;78.47
71082;SHT31;58740;50.672;18.690;2022-08-21T16:35:32;19.52;78.52
71082;SHT31;58740;50.672;18.690;2022-08-21T16:38:00;19.53;78.48
71082;SHT31;58740;50.672;18.690;2022-08-21T16:40:28;19.53;78.55
71082;SHT31;58740;50.672;18.690;2022-08-21T16:42:56;19.53;78.62
71082;SHT31;58740;50.672;18.690;2022-08-21T16:45:24;19.54;78.40
71082;SHT31;58740;50.672;18.690;2022-08-21T16:47:58;19.50;78.54
71082;SHT31;58740;50.672;18.690;2022-08-21T16:50:30;19.49;78.66
71082;SHT31;58740;50.672;18.690;2022-08-21T16:52:58;19.50;78.72
71082;SHT31;58740;50.672;18.690;2022-08-21T16:55:26;19.50;78.64
71082;SHT31;58740;50.672;18.690;2022-08-21T16:57:54;19.50;78.70
71082;SHT31;58740;50.672;18.690;2022-08-21T17:00:23;19.50;78.66
71082;SHT31;58740;50.672;18.690;2022-08-21T17:02:52;19.48;78.68
71082;SHT31;58740;50.672;18.690;2022-08-21T17:05:22;19.46;78.89
71082;SHT31;58740;50.672;18.690;2022-08-21T17:07:49;19.47;78.71
71082;SHT31;58740;50.672;18.690;2022-08-21T17:10:17;19.47;78.75
71082;SHT31;58740;50.672;18.690;2022-08-21T17:12:46;19.47;78.66
71082;SHT31;58740;50.672;18.690;2022-08-21T17:15:33;19.47;78.76
71082;SHT31;58740;50.672;18.690;2022-08-21T17:18:04;19.46;78.83
71082;SHT31;58740;50.672;18.690;2022-08-21T17:20:37;19.47;78.70
71082;SHT31;58740;50.672;18.690;2022-08-21T17:23:05;19.46;78.73
71082;SHT31;58740;50.672;18.690;2022-08-21T17:25:34;19.46;78.78
71082;SHT31;58740;50.672;18.690;2022-08-21T17:28:10;19.45;78.71
71082;SHT31;58740;50.672;18.690;2022-08-21T17:30:45;19.46;78.80